Time;durP1;ratioP1;P1;durP2;ratioP2;P2;SDS_P1;SDS_P2;PMS_P1;PMS_P2;Temp;Humidity;BMP_temperature;BMP_pressure;BME280_temperature;BME280_humidity;BME280_pressure;Samples;Min_cycle;Max_cycle;Signal;HPM_P1;HPM_P2
2023/09/29 00:00:34;;;;;;;1999.90;999.90;;;;;;;13.30;100.00;95370.22;5064757;28;20187;-44
2023/09/29 00:03:00;;;;;;;1999.90;999.90;;;;;;;13.25;100.00;95373.44;5064490;28;20198;-48
2023/09/29 00:05:27;;;;;;;1999.90;999.90;;;;;;;13.22;100.00;95372.31;5064698;28;20224;-47
2023/09/29 00:07:52;;;;;;;1999.90;999.90;;;;;;;13.22;100.00;95382.50;5064976;28;20199;-48
2023/09/29 00:10:20;;;;;;;1999.90;999.90;;;;;;;13.18;100.00;95387.28;5064480;28;20245;-45
2023/09/29 00:12:46;;;;;;;1999.90;999.90;;;;;;;13.13;100.00;95374.84;5064957;28;20182;-47
2023/09/29 00:15:12;;;;;;;1999.90;999.90;;;;;;;13.10;100.00;95380.38;5064424;28;20178;-45
2023/09/29 00:17:37;;;;;;;1999.90;999.90;;;;;;;13.07;100.00;95382.00;5064699;28;20427;-50
2023/09/29 00:22:39;;;;;;;1999.90;999.90;;;;;;;13.01;100.00;95382.91;5065371;28;20200;-51
2023/09/29 00:25:06;;;;;;;1999.90;999.90;;;;;;;12.97;100.00;95379.44;5064323;28;20173;-46
2023/09/29 00:27:31;;;;;;;1999.90;999.90;;;;;;;12.94;100.00;95377.53;5064210;28;20173;-48
2023/09/29 00:29:57;;;;;;;1999.90;999.90;;;;;;;12.91;100.00;95375.59;5064232;28;20178;-45
2023/09/29 00:32:22;;;;;;;1999.90;999.90;;;;;;;12.85;100.00;95380.00;5064670;28;20173;-46
2023/09/29 00:34:47;;;;;;;1999.90;999.90;;;;;;;12.80;100.00;95378.53;5064761;28;20177;-45
2023/09/29 00:37:13;;;;;;;1999.90;999.90;;;;;;;12.79;100.00;95378.97;5064109;28;20338;-47
2023/09/29 00:39:38;;;;;;;1999.90;999.90;;;;;;;12.80;100.00;95366.78;5064144;28;20177;-48
2023/09/29 00:42:06;;;;;;;1999.90;999.90;;;;;;;12.78;100.00;95358.22;5064005;28;20201;-45
2023/09/29 00:44:32;;;;;;;1999.90;999.90;;;;;;;12.75;100.00;95359.06;5063883;28;20201;-45
2023/09/29 00:46:58;;;;;;;1999.90;999.90;;;;;;;12.70;100.00;95367.75;5063985;28;20241;-45
2023/09/29 00:49:26;;;;;;;1999.90;999.90;;;;;;;12.68;100.00;95364.66;5063980;28;20179;-50
2023/09/29 00:51:52;;;;;;;1999.90;999.90;;;;;;;12.66;100.00;95356.06;5063852;28;20179;-49
2023/09/29 00:54:18;;;;;;;1999.90;999.90;;;;;;;12.67;100.00;95343.91;5064313;28;20189;-48
2023/09/29 00:56:43;;;;;;;1999.90;999.90;;;;;;;12.66;100.00;95345.13;5063777;28;20241;-50
2023/09/29 00:59:10;;;;;;;1999.90;999.90;;;;;;;12.64;100.00;95342.03;5064334;28;20218;-47
2023/09/29 01:01:35;;;;;;;1999.90;999.90;;;;;;;12.59;100.00;95331.53;5063771;28;20174;-46
2023/09/29 01:04:02;;;;;;;1999.90;999.90;;;;;;;12.55;100.00;95336.28;5063822;28;20212;-49
2023/09/29 01:06:29;;;;;;;1999.90;999.90;;;;;;;12.51;100.00;95332.84;5064549;28;20178;-46
2023/09/29 01:08:56;;;;;;;1999.90;999.90;;;;;;;12.49;100.00;95340.69;5063723;28;20201;-50
2023/09/29 01:11:22;;;;;;;1999.90;999.90;;;;;;;12.47;100.00;95338.41;5063648;28;20196;-47
2023/09/29 01:13:47;;;;;;;1999.90;999.90;;;;;;;12.48;100.00;95328.97;5063715;28;20181;-48
2023/09/29 01:16:13;;;;;;;1999.90;999.90;;;;;;;12.48;100.00;95333.69;5063673;28;20169;-45
2023/09/29 01:18:39;;;;;;;1999.90;999.90;;;;;;;12.43;100.00;95334.16;5064574;28;20188;-46
2023/09/29 01:21:05;;;;;;;1999.90;999.90;;;;;;;12.41;100.00;95329.09;5064056;28;20173;-46
2023/09/29 01:23:32;;;;;;;1999.90;999.90;;;;;;;12.41;100.00;95333.78;5064084;28;20204;-45
2023/09/29 01:25:59;;;;;;;1999.90;999.90;;;;;;;12.40;100.00;95327.56;5063623;28;20173;-47
2023/09/29 01:28:24;;;;;;;1999.90;999.90;;;;;;;12.43;100.00;95326.69;5063629;28;20474;-48
2023/09/29 01:30:53;;;;;;;1999.90;999.90;;;;;;;12.44;100.00;95332.97;5063480;28;20194;-46
2023/09/29 01:33:19;;;;;;;1999.90;999.90;;;;;;;12.45;100.00;95329.81;5064031;28;20181;-49
2023/09/29 01:35:44;;;;;;;1999.90;999.90;;;;;;;12.44;100.00;95327.47;5064016;28;20249;-46
2023/09/29 01:38:09;;;;;;;1999.90;999.90;;;;;;;12.38;100.00;95331.88;5063529;28;20177;-45
2023/09/29 01:40:35;;;;;;;1999.90;999.90;;;;;;;12.36;100.00;95331.53;5064246;28;20174;-49
2023/09/29 01:43:00;;;;;;;1999.90;999.90;;;;;;;12.35;100.00;95330.75;5063857;28;20431;-45
2023/09/29 01:45:26;;;;;;;1999.90;999.90;;;;;;;12.37;100.00;95327.59;5063798;28;20178;-47
2023/09/29 01:47:52;;;;;;;1999.90;999.90;;;;;;;12.35;100.00;95332.72;5063471;28;20211;-46
2023/09/29 01:50:21;;;;;;;1999.90;999.90;;;;;;;12.31;100.00;95340.22;5063260;28;20189;-52
2023/09/29 01:52:47;;;;;;;1999.90;999.90;;;;;;;12.28;100.00;95335.56;5063722;28;20177;-51
2023/09/29 01:55:20;;;;;;;1999.90;999.90;;;;;;;12.26;100.00;95332.47;5063221;28;20189;-48
2023/09/29 01:57:51;;;;;;;1999.90;999.90;;;;;;;12.23;100.00;95334.06;5063801;28;20265;-46
2023/09/29 02:00:24;;;;;;;1999.90;999.90;;;;;;;12.24;100.00;95329.38;5063723;28;20178;-46
2023/09/29 02:02:51;;;;;;;1999.90;999.90;;;;;;;12.21;100.00;95330.22;5063985;28;20209;-47
2023/09/29 02:05:17;;;;;;;1999.90;999.90;;;;;;;12.17;100.00;95332.22;5063301;28;20217;-46
2023/09/29 02:07:46;;;;;;;1999.90;999.90;;;;;;;12.16;100.00;95325.19;5063262;28;20212;-47
2023/09/29 02:10:12;;;;;;;1999.90;999.90;;;;;;;12.15;100.00;95331.84;5063143;28;20374;-45
2023/09/29 02:12:47;;;;;;;1999.90;999.90;;;;;;;12.10;100.00;95335.06;5063684;28;20181;-46
2023/09/29 02:15:16;;;;;;;1999.90;999.90;;;;;;;12.08;100.00;95331.97;5063958;28;20164;-48
2023/09/29 02:17:42;;;;;;;1999.90;999.90;;;;;;;12.07;100.00;95323.00;5066760;28;20187;-46
2023/09/29 02:20:15;;;;;;;1999.90;999.90;;;;;;;12.08;100.00;95331.97;5067219;28;20173;-46
2023/09/29 02:22:42;;;;;;;1999.90;999.90;;;;;;;12.06;100.00;95328.88;5067121;28;20211;-47
2023/09/29 02:25:14;;;;;;;1999.90;999.90;;;;;;;12.03;100.00;95330.50;5066560;28;20207;-48
2023/09/29 02:27:40;;;;;;;1999.90;999.90;;;;;;;12.02;100.00;95328.91;5066606;28;20166;-45
2023/09/29 02:30:08;;;;;;;1999.90;999.90;;;;;;;12.00;100.00;95341.47;5067061;28;20194;-47
2023/09/29 02:32:35;;;;;;;1999.90;999.90;;;;;;;11.98;100.00;95333.66;5067259;28;20172;-46
2023/09/29 02:35:01;;;;;;;1999.90;999.90;;;;;;;11.95;100.00;95339.22;5066327;28;20176;-46
2023/09/29 02:37:26;;;;;;;1999.90;999.90;;;;;;;11.97;100.00;95342.28;5066400;28;20210;-44
2023/09/29 02:39:51;;;;;;;1999.90;999.90;;;;;;;11.97;100.00;95342.28;5066324;28;20177;-45
2023/09/29 02:42:17;;;;;;;1999.90;999.90;;;;;;;11.94;100.00;95348.59;5066242;28;20173;-44
2023/09/29 02:44:43;;;;;;;1999.90;999.90;;;;;;;11.90;100.00;95347.88;5066143;28;20216;-45
2023/09/29 02:47:08;;;;;;;1999.90;999.90;;;;;;;11.91;100.00;95357.66;5066174;28;20197;-45
2023/09/29 02:49:34;;;;;;;1999.90;999.90;;;;;;;11.88;100.00;95355.72;5066400;28;20411;-45
2023/09/29 02:52:04;;;;;;;1999.90;999.90;;;;;;;11.82;100.00;95354.63;5066306;28;20367;-48
2023/09/29 02:54:30;;;;;;;1999.90;999.90;;;;;;;11.81;100.00;95350.34;5066031;28;20295;-46
2023/09/29 02:56:56;;;;;;;1999.90;999.90;;;;;;;11.78;100.00;95373.06;5066399;28;20174;-48
2023/09/29 02:59:23;;;;;;;1999.90;999.90;;;;;;;11.74;100.00;95356.69;5065956;28;20223;-48
2023/09/29 03:01:49;;;;;;;1999.90;999.90;;;;;;;11.73;100.00;95365.31;5066469;28;20173;-45
2023/09/29 03:04:15;;;;;;;1999.90;999.90;;;;;;;11.71;100.00;95362.19;5066015;28;20250;-45
2023/09/29 03:06:41;;;;;;;1999.90;999.90;;;;;;;11.66;100.00;95365.41;5065896;28;20185;-47
2023/09/29 03:09:10;;;;;;;1999.90;999.90;;;;;;;11.62;100.00;95359.22;5066424;28;20182;-46
2023/09/29 03:11:39;;;;;;;1999.90;999.90;;;;;;;11.61;100.00;95354.91;5065792;28;20249;-51
2023/09/29 03:14:06;;;;;;;1999.90;999.90;;;;;;;11.59;100.00;95354.53;5065613;28;20220;-47
2023/09/29 03:16:32;;;;;;;1999.90;999.90;;;;;;;11.58;100.00;95363.91;5065706;28;20172;-51
2023/09/29 03:18:58;;;;;;;1999.90;999.90;;;;;;;11.54;100.00;95358.47;5066074;28;20174;-50
2023/09/29 03:21:24;;;;;;;1999.90;999.90;;;;;;;11.53;100.00;95350.69;5066318;28;20176;-52
2023/09/29 03:23:50;;;;;;;1999.90;999.90;;;;;;;11.53;100.00;95345.22;5065973;28;20204;-51
2023/09/29 03:26:22;;;;;;;1999.90;999.90;;;;;;;11.54;100.00;95346.78;5065353;28;20363;-48
2023/09/29 03:28:47;;;;;;;1999.90;999.90;;;;;;;11.53;100.00;95339.75;5065914;28;20169;-47
2023/09/29 03:31:13;;;;;;;1999.90;999.90;;;;;;;11.54;100.00;95335.84;5065628;28;20182;-52
2023/09/29 03:33:38;;;;;;;1999.90;999.90;;;;;;;11.55;100.00;95342.84;5065225;28;20178;-49
2023/09/29 03:36:04;;;;;;;1999.90;999.90;;;;;;;11.58;100.00;95331.09;5065141;28;20173;-48
2023/09/29 03:38:30;;;;;;;1999.90;999.90;;;;;;;11.54;100.00;95330.38;5065994;28;20203;-46
2023/09/29 03:40:57;;;;;;;1999.90;999.90;;;;;;;11.55;100.00;95337.38;5064896;28;20181;-49
2023/09/29 03:43:23;;;;;;;1999.90;999.90;;;;;;;11.56;100.00;95333.47;5064974;28;20200;-47
2023/09/29 03:45:53;;;;;;;1999.90;999.90;;;;;;;11.56;100.00;95338.94;5065049;28;20180;-49
2023/09/29 03:48:19;;;;;;;1999.90;999.90;;;;;;;11.54;100.00;95335.84;5065537;28;20164;-46
2023/09/29 03:50:44;;;;;;;1999.90;999.90;;;;;;;11.55;100.00;95337.38;5065516;28;20179;-50
2023/09/29 03:53:10;;;;;;;1999.90;999.90;;;;;;;11.52;100.00;95332.72;5065186;28;20181;-48
2023/09/29 03:55:35;;;;;;;1999.90;999.90;;;;;;;11.51;100.00;95333.91;5065343;28;20223;-46
2023/09/29 03:58:01;;;;;;;1999.90;999.90;;;;;;;11.49;100.00;95339.00;5064681;28;20239;-45
2023/09/29 04:00:26;;;;;;;1999.90;999.90;;;;;;;11.49;100.00;95322.59;5065086;28;20248;-45
2023/09/29 04:02:52;;;;;;;1999.90;999.90;;;;;;;11.51;100.00;95325.72;5064644;28;20216;-48
2023/09/29 04:05:18;;;;;;;1999.90;999.90;;;;;;;11.53;100.00;95306.94;5064296;28;20232;-45
2023/09/29 04:07:44;;;;;;;1999.90;999.90;;;;;;;11.50;100.00;95305.00;5064876;28;20243;-48
2023/09/29 04:10:12;;;;;;;1999.90;999.90;;;;;;;11.45;100.00;95300.78;5064454;28;20417;-48
2023/09/29 04:12:40;;;;;;;1999.90;999.90;;;;;;;11.45;100.00;95294.53;5064972;28;20173;-49
2023/09/29 04:15:06;;;;;;;1999.90;999.90;;;;;;;11.42;100.00;95295.34;5064440;28;20169;-46
2023/09/29 04:17:32;;;;;;;1999.90;999.90;;;;;;;11.36;100.00;95297.00;5064397;28;20166;-49
2023/09/29 04:19:57;;;;;;;1999.90;999.90;;;;;;;11.34;100.00;95291.16;5064611;28;20176;-49
2023/09/29 04:22:24;;;;;;;1999.90;999.90;;;;;;;11.29;100.00;95286.16;5064522;28;20169;-50
2023/09/29 04:24:50;;;;;;;1999.90;999.90;;;;;;;11.24;100.00;95283.88;5064319;28;20447;-49
2023/09/29 04:27:15;;;;;;;1999.90;999.90;;;;;;;11.21;100.00;95281.94;5064755;28;20185;-50
2023/09/29 04:29:40;;;;;;;1999.90;999.90;;;;;;;11.15;100.00;95286.34;5063863;28;20176;-54
2023/09/29 04:32:06;;;;;;;1999.90;999.90;;;;;;;11.16;100.00;95287.88;5064159;28;20179;-51
2023/09/29 04:34:32;;;;;;;1999.90;999.90;;;;;;;11.14;100.00;95282.81;5064664;28;20177;-50
2023/09/29 04:36:57;;;;;;;1999.90;999.90;;;;;;;11.12;100.00;95278.94;5064026;28;20173;-47
2023/09/29 04:39:22;;;;;;;1999.90;999.90;;;;;;;11.09;100.00;95282.50;5063599;28;20337;-47
2023/09/29 04:41:48;;;;;;;1999.90;999.90;;;;;;;11.06;100.00;95277.84;5064626;28;20198;-50
2023/09/29 04:44:13;;;;;;;1999.90;999.90;;;;;;;11.04;100.00;95277.50;5064380;28;20205;-48
2023/09/29 04:46:41;;;;;;;1999.90;999.90;;;;;;;11.00;100.00;95274.03;5064351;28;20243;-49
2023/09/29 04:49:07;;;;;;;1999.90;999.90;;;;;;;11.02;100.00;95266.19;5063830;28;20355;-50
2023/09/29 04:51:33;;;;;;;1999.90;999.90;;;;;;;11.02;100.00;95266.97;5064444;28;20246;-46
2023/09/29 04:53:58;;;;;;;1999.90;999.90;;;;;;;11.03;100.00;95254.84;5064549;28;20172;-50
2023/09/29 04:56:24;;;;;;;1999.90;999.90;;;;;;;11.01;100.00;95257.22;5063722;28;20176;-49
2023/09/29 04:58:49;;;;;;;1999.90;999.90;;;;;;;11.01;100.00;95259.19;5063940;28;20198;-52
2023/09/29 05:01:18;;;;;;;1999.90;999.90;;;;;;;11.01;100.00;95259.19;5064161;28;20251;-52
2023/09/29 05:03:47;;;;;;;1999.90;999.90;;;;;;;11.04;100.00;95255.63;5063716;28;20203;-47
2023/09/29 05:06:12;;;;;;;1999.90;999.90;;;;;;;11.03;100.00;95262.28;5064138;28;20228;-45
2023/09/29 05:08:38;;;;;;;1999.90;999.90;;;;;;;11.04;100.00;95252.91;5063745;28;20215;-45
2023/09/29 05:11:03;;;;;;;1999.90;999.90;;;;;;;11.06;100.00;95261.44;5063860;28;20172;-47
2023/09/29 05:13:32;;;;;;;1999.90;999.90;;;;;;;11.12;100.00;95254.34;5063629;28;20177;-48
2023/09/29 05:16:00;;;;;;;1999.90;999.90;;;;;;;11.15;100.00;95261.75;5063543;28;20556;-47
2023/09/29 05:18:26;;;;;;;1999.90;999.90;;;;;;;11.18;100.00;95266.38;5063550;28;20215;-45
2023/09/29 05:20:51;;;;;;;1999.90;999.90;;;;;;;11.25;100.00;95263.56;5063108;28;20173;-49
2023/09/29 05:23:17;;;;;;;1999.90;999.90;;;;;;;11.42;100.00;95273.47;5063442;28;20207;-46
2023/09/29 05:25:46;;;;;;;1999.90;999.90;;;;;;;11.58;100.00;95287.34;5064134;28;20179;-48
2023/09/29 05:28:12;;;;;;;1999.90;999.90;;;;;;;11.70;100.00;95311.41;5063822;28;20323;-50
2023/09/29 05:30:37;;;;;;;1999.90;999.90;;;;;;;11.88;100.00;95340.06;5063900;28;20173;-51
2023/09/29 05:33:04;;;;;;;1999.90;999.90;;;;;;;12.04;100.00;95358.63;5063223;28;20173;-50
2023/09/29 05:35:29;;;;;;;1999.90;999.90;;;;;;;12.22;100.00;95379.09;5063447;28;20170;-49
2023/09/29 05:37:54;;;;;;;1999.90;999.90;;;;;;;12.46;100.00;95396.31;5063215;28;20180;-48
2023/09/29 05:40:20;;;;;;;1999.90;999.90;;;;;;;12.88;100.00;95420.28;5063646;28;20195;-51
2023/09/29 05:42:45;;;;;;;1999.90;999.90;;;;;;;13.71;100.00;95463.09;5064067;28;20174;-47
2023/09/29 05:45:12;;;;;;;1999.90;999.90;;;;;;;14.48;100.00;95525.53;5063728;28;20184;-50
2023/09/29 05:47:37;;;;;;;1999.90;999.90;;;;;;;15.21;100.00;95591.06;5063802;28;20233;-49
2023/09/29 05:50:03;;;;;;;1999.90;999.90;;;;;;;15.95;100.00;95653.41;5064409;28;20193;-47
2023/09/29 05:52:28;;;;;;;1999.90;999.90;;;;;;;16.70;100.00;95691.69;5066575;28;20177;-49
2023/09/29 05:54:53;;;;;;;1999.90;999.90;;;;;;;16.87;100.00;95727.09;5067444;28;20174;-51
2023/09/29 05:57:19;;;;;;;1999.90;999.90;;;;;;;17.18;100.00;95732.91;5066857;28;20201;-55
2023/09/29 05:59:44;;;;;;;1999.90;999.90;;;;;;;17.62;100.00;95732.03;5066902;28;20254;-47
2023/09/29 06:02:10;;;;;;;1999.90;999.90;;;;;;;18.14;100.00;95743.47;5066764;28;20177;-49
2023/09/29 06:04:35;;;;;;;1999.90;999.90;;;;;;;18.49;100.00;95750.63;5066733;28;20236;-50
2023/09/29 06:07:01;;;;;;;1999.90;999.90;;;;;;;18.96;100.00;95745.84;5067519;28;20237;-49
2023/09/29 06:09:26;;;;;;;1999.90;999.90;;;;;;;18.69;100.00;95748.38;5067256;28;20166;-50
2023/09/29 06:11:52;;;;;;;1999.90;999.90;;;;;;;19.03;100.00;95751.94;5066708;28;20177;-46
2023/09/29 06:14:17;;;;;;;1999.90;999.90;;;;;;;19.78;100.00;95761.88;5067208;28;20181;-48
2023/09/29 06:16:42;;;;;;;1999.90;999.90;;;;;;;20.27;100.00;95765.50;5066964;28;20245;-48
2023/09/29 06:19:08;;;;;;;1999.90;999.90;;;;;;;20.77;100.00;95765.03;5066971;28;20169;-51
2023/09/29 06:21:33;;;;;;;1999.90;999.90;;;;;;;21.16;100.00;95774.53;5067248;28;20169;-47
2023/09/29 06:23:58;;;;;;;1999.90;999.90;;;;;;;21.48;100.00;95769.09;5067028;28;20295;-48
2023/09/29 06:26:25;;;;;;;1999.90;999.90;;;;;;;21.70;100.00;95768.91;5066333;28;20166;-48
2023/09/29 06:28:50;;;;;;;1999.90;999.90;;;;;;;22.16;100.00;95768.38;5067198;28;20166;-46
2023/09/29 06:31:15;;;;;;;1999.90;999.90;;;;;;;22.41;100.00;95762.38;5066371;28;20174;-50
2023/09/29 06:33:42;;;;;;;1999.90;999.90;;;;;;;22.61;100.00;95763.88;5066539;28;20162;-49
2023/09/29 06:36:07;;;;;;;1999.90;999.90;;;;;;;22.85;100.00;95768.22;5066595;28;20225;-50
2023/09/29 06:38:33;;;;;;;1999.90;999.90;;;;;;;22.74;100.00;95767.19;5066725;28;20170;-49
2023/09/29 06:40:58;;;;;;;1999.90;999.90;;;;;;;23.48;100.00;95764.19;5066611;28;20195;-49
2023/09/29 06:43:24;;;;;;;1999.90;999.90;;;;;;;23.49;100.00;95765.75;5066112;28;20201;-51
2023/09/29 06:45:49;;;;;;;1999.90;999.90;;;;;;;23.87;100.00;95765.69;5066076;28;20237;-48
2023/09/29 06:48:14;;;;;;;1999.90;999.90;;;;;;;24.07;100.00;95769.38;5066145;28;20193;-51
2023/09/29 06:50:40;;;;;;;1999.90;999.90;;;;;;;24.15;100.00;95769.78;5065956;28;20300;-48
2023/09/29 06:53:06;;;;;;;1999.90;999.90;;;;;;;24.66;100.00;95767.31;5065862;28;20178;-47
2023/09/29 06:55:31;;;;;;;1999.90;999.90;;;;;;;24.85;100.00;95774.97;5066710;28;20177;-50
2023/09/29 06:57:58;;;;;;;1999.90;999.90;;;;;;;24.93;100.00;95778.88;5065787;28;20265;-46
2023/09/29 07:00:24;;;;;;;1999.90;999.90;;;;;;;24.78;100.00;95780.97;5065649;28;20171;-50
2023/09/29 07:02:49;;;;;;;1999.90;999.90;;;;;;;24.49;100.00;95777.41;5065371;28;20208;-47
2023/09/29 07:05:15;;;;;;;1999.90;999.90;;;;;;;24.60;100.00;95785.97;5065425;28;20210;-50
2023/09/29 07:07:41;;;;;;;1999.90;999.90;;;;;;;24.72;100.00;95790.50;5065779;28;20169;-52
2023/09/29 07:10:06;;;;;;;1999.90;999.90;;;;;;;25.43;100.00;95796.34;5065611;28;20240;-47
2023/09/29 07:12:32;;;;;;;1999.90;999.90;;;;;;;25.44;100.00;95797.88;5066114;28;20233;-47
2023/09/29 07:14:57;;;;;;;1999.90;999.90;;;;;;;25.44;100.00;95797.88;5065995;28;20166;-50
2023/09/29 07:17:23;;;;;;;1999.90;999.90;;;;;;;26.32;100.00;95798.81;5065644;28;20170;-51
2023/09/29 07:19:48;;;;;;;1999.90;999.90;;;;;;;26.98;100.00;95810.56;5065457;28;20166;-48
2023/09/29 07:22:14;;;;;;;1999.90;999.90;;;;;;;27.31;100.00;95810.78;5065118;28;20196;-48
2023/09/29 07:24:42;;;;;;;1999.90;999.90;;;;;;;27.75;100.00;95818.63;5065711;28;20216;-51
2023/09/29 07:27:10;;;;;;;1999.90;999.90;;;;;;;28.40;94.53;95813.69;5065618;28;20166;-49
2023/09/29 07:29:35;;;;;;;1999.90;999.90;;;;;;;28.47;95.80;95824.44;5065261;28;20178;-46
2023/09/29 07:32:01;;;;;;;1999.90;999.90;;;;;;;28.50;92.05;95818.56;5065759;28;20310;-46
2023/09/29 07:34:27;;;;;;;1999.90;999.90;;;;;;;29.16;87.12;95817.75;5065174;28;20245;-46
2023/09/29 07:36:53;;;;;;;1999.90;999.90;;;;;;;29.46;80.32;95813.84;5065251;28;20166;-46
2023/09/29 07:39:19;;;;;;;1999.90;999.90;;;;;;;30.18;75.88;95822.00;5065052;28;20245;-47
2023/09/29 07:41:44;;;;;;;1999.90;999.90;;;;;;;29.94;72.94;95819.06;5064715;28;20190;-45
2023/09/29 07:44:10;;;;;;;1999.90;999.90;;;;;;;30.04;76.71;95820.28;5065328;28;20205;-49
2023/09/29 07:46:36;;;;;;;1999.90;999.90;;;;;;;30.51;72.49;95814.09;5064865;28;20173;-47
2023/09/29 07:49:02;;;;;;;1999.90;999.90;;;;;;;30.96;68.00;95814.53;5065047;28;20190;-47
2023/09/29 07:51:28;;;;;;;1999.90;999.90;;;;;;;31.26;66.81;95817.31;5064615;28;20204;-48
2023/09/29 07:53:54;;;;;;;1999.90;999.90;;;;;;;30.74;68.86;95823.19;5065067;28;20162;-49
2023/09/29 07:56:19;;;;;;;1999.90;999.90;;;;;;;30.26;68.25;95825.81;5064793;28;20174;-48
2023/09/29 07:58:44;;;;;;;1999.90;999.90;;;;;;;30.44;67.03;95828.75;5064591;28;20193;-45
2023/09/29 08:01:10;;;;;;;1999.90;999.90;;;;;;;31.30;63.89;95824.22;5064665;28;20166;-48
2023/09/29 08:03:36;;;;;;;1999.90;999.90;;;;;;;31.41;65.98;95829.75;5065038;28;20201;-51
2023/09/29 08:06:01;;;;;;;1999.90;999.90;;;;;;;31.18;65.89;95834.06;5065172;28;20213;-47
2023/09/29 08:08:26;;;;;;;1999.90;999.90;;;;;;;30.95;65.65;95832.72;5064581;28;20173;-47
2023/09/29 08:10:55;;;;;;;1999.90;999.90;;;;;;;31.38;64.75;95836.44;5064427;28;20166;-49
2023/09/29 08:13:23;;;;;;;1999.90;999.90;;;;;;;31.57;61.37;95842.91;5063912;28;20192;-48
2023/09/29 08:15:49;;;;;;;1999.90;999.90;;;;;;;31.80;61.43;95844.22;5064403;28;20223;-50
2023/09/29 08:18:14;;;;;;;1999.90;999.90;;;;;;;32.07;60.33;95840.25;5064272;28;20170;-48
2023/09/29 08:20:41;;;;;;;1999.90;999.90;;;;;;;32.67;59.17;95835.81;5064181;28;20215;-45
2023/09/29 08:23:06;;;;;;;1999.90;999.90;;;;;;;32.83;55.79;95843.31;5064372;28;20185;-50
2023/09/29 08:25:33;;;;;;;1999.90;999.90;;;;;;;32.68;56.87;95840.19;5064882;28;20204;-48
2023/09/29 08:28:02;;;;;;;1999.90;999.90;;;;;;;32.39;57.13;95843.97;5064170;28;20161;-48
2023/09/29 08:30:27;;;;;;;1999.90;999.90;;;;;;;32.10;61.26;95836.38;5065088;28;20170;-47
2023/09/29 08:32:53;;;;;;;1999.90;999.90;;;;;;;32.49;57.93;95844.34;5064491;28;20161;-50
2023/09/29 08:35:18;;;;;;;1999.90;999.90;;;;;;;33.04;57.18;95834.97;5064518;28;20527;-47
2023/09/29 08:37:45;;;;;;;1999.90;999.90;;;;;;;32.99;56.24;95836.59;5064286;28;20177;-50
2023/09/29 08:40:14;;;;;;;1999.90;999.90;;;;;;;33.10;55.52;95839.22;5064116;28;20170;-52
2023/09/29 08:42:46;;;;;;;1999.90;999.90;;;;;;;33.15;54.88;95858.22;5063846;28;20178;-53
2023/09/29 08:45:11;;;;;;;1999.90;999.90;;;;;;;33.66;56.05;95839.00;5064353;28;20236;-47
2023/09/29 08:47:38;;;;;;;1999.90;999.90;;;;;;;34.11;51.97;95858.75;5063996;28;20173;-49
2023/09/29 08:50:04;;;;;;;1999.90;999.90;;;;;;;33.89;51.45;95848.63;5063877;28;20170;-50
2023/09/29 08:52:32;;;;;;;1999.90;999.90;;;;;;;34.10;52.48;95848.69;5063801;28;20177;-50
2023/09/29 08:54:59;;;;;;;1999.90;999.90;;;;;;;33.73;52.39;95850.44;5063784;28;20170;-51
2023/09/29 08:57:25;;;;;;;1999.90;999.90;;;;;;;33.21;52.96;95853.19;5063815;28;20217;-46
2023/09/29 08:59:52;;;;;;;1999.90;999.90;;;;;;;33.70;53.86;95851.56;5064014;28;20166;-46
2023/09/29 09:02:18;;;;;;;1999.90;999.90;;;;;;;33.53;53.68;95847.50;5063583;28;20170;-51
2023/09/29 09:04:43;;;;;;;1999.90;999.90;;;;;;;33.19;54.94;95847.34;5063866;28;20249;-50
2023/09/29 09:07:09;;;;;;;1999.90;999.90;;;;;;;33.58;54.76;95847.38;5063617;28;20166;-48
2023/09/29 09:09:36;;;;;;;1999.90;999.90;;;;;;;34.49;52.26;95840.91;5063617;28;20169;-46
2023/09/29 09:12:02;;;;;;;1999.90;999.90;;;;;;;34.58;51.07;95842.47;5063536;28;20166;-53
2023/09/29 09:14:42;;;;;;;1999.90;999.90;;;;;;;34.65;49.79;95841.81;5064115;28;20245;-48
2023/09/29 09:17:07;;;;;;;1999.90;999.90;;;;;;;34.59;48.85;95850.44;5064322;28;20241;-48
2023/09/29 09:19:42;;;;;;;1999.90;999.90;;;;;;;34.59;49.69;95844.03;5063614;28;20169;-47
2023/09/29 09:22:14;;;;;;;1999.90;999.90;;;;;;;34.69;49.95;95842.22;5063979;28;20223;-48
2023/09/29 09:24:40;;;;;;;1999.90;999.90;;;;;;;34.87;49.59;95841.31;5065680;28;20205;-53
2023/09/29 09:27:08;;;;;;;1999.90;999.90;;;;;;;34.65;48.34;95836.13;5067651;28;20211;-47
2023/09/29 09:29:43;;;;;;;1999.90;999.90;;;;;;;33.67;51.19;95840.53;5067565;28;20195;-57
2023/09/29 09:32:10;;;;;;;1999.90;999.90;;;;;;;33.14;53.90;95839.69;5067517;28;20169;-45
2023/09/29 09:34:37;;;;;;;1999.90;999.90;;;;;;;33.16;54.62;95837.09;5068005;28;20174;-47
2023/09/29 09:37:03;;;;;;;1999.90;999.90;;;;;;;33.37;52.91;95829.53;5067397;28;20192;-45
2023/09/29 09:39:29;;;;;;;1999.90;999.90;;;;;;;33.29;52.26;95834.25;5067394;28;20249;-52
2023/09/29 09:41:56;;;;;;;1999.90;999.90;;;;;;;32.91;53.72;95827.22;5067264;28;20170;-47
2023/09/29 09:44:23;;;;;;;1999.90;999.90;;;;;;;33.29;53.30;95827.84;5067288;28;20272;-47
2023/09/29 09:47:03;;;;;;;1999.90;999.90;;;;;;;33.48;51.71;95817.97;5067760;28;20174;-47
2023/09/29 09:50:01;;;;;;;1999.90;999.90;;;;;;;33.16;55.05;95825.75;5067769;28;20162;-48
2023/09/29 09:52:30;;;;;;;1999.90;999.90;;;;;;;33.89;52.29;95822.34;5013680;28;20189;-49
2023/09/29 09:54:58;;;;;;;1999.90;999.90;;;;;;;33.44;51.67;95826.03;5067652;28;20184;-46
2023/09/29 09:57:30;;;;;;;1999.90;999.90;;;;;;;32.59;55.03;95834.16;5066909;28;20221;-46
2023/09/29 10:00:06;;;;;;;1999.90;999.90;;;;;;;32.29;58.55;95823.00;5067570;28;20168;-48
2023/09/29 10:02:33;;;;;;;1999.90;999.90;;;;;;;32.10;58.02;95819.41;5067500;28;20166;-47
2023/09/29 10:05:00;;;;;;;1999.90;999.90;;;;;;;32.98;54.14;95820.16;5066805;28;20226;-46
2023/09/29 10:07:25;;;;;;;1999.90;999.90;;;;;;;32.63;55.09;95812.72;5067224;28;20178;-47
2023/09/29 10:09:50;;;;;;;1999.90;999.90;;;;;;;32.50;58.22;95826.81;5066830;28;20301;-47
2023/09/29 10:12:24;;;;;;;1999.90;999.90;;;;;;;33.03;58.93;95822.88;5067362;28;20201;-48
2023/09/29 10:14:49;;;;;;;1999.90;999.90;;;;;;;33.06;54.73;95818.19;5066992;28;20184;-46
2023/09/29 10:17:15;;;;;;;1999.90;999.90;;;;;;;32.63;55.48;95818.38;5067218;28;20174;-46
2023/09/29 10:19:40;;;;;;;1999.90;999.90;;;;;;;32.86;56.40;95813.16;5066881;28;20173;-45
2023/09/29 10:22:08;;;;;;;1999.90;999.90;;;;;;;32.72;54.93;95809.50;5066539;28;20200;-45
2023/09/29 10:24:34;;;;;;;1999.90;999.90;;;;;;;32.66;54.13;95813.72;5066415;28;20202;-47
2023/09/29 10:27:04;;;;;;;1999.90;999.90;;;;;;;33.08;53.97;95807.88;5066983;28;20181;-47
2023/09/29 10:29:32;;;;;;;1999.90;999.90;;;;;;;32.96;54.24;95817.09;5067122;28;20205;-47
2023/09/29 10:32:10;;;;;;;1999.90;999.90;;;;;;;32.81;55.23;95806.25;5066344;28;20200;-45
2023/09/29 10:34:37;;;;;;;1999.90;999.90;;;;;;;32.45;57.24;95807.09;5066819;28;20220;-45
2023/09/29 10:37:02;;;;;;;1999.90;999.90;;;;;;;32.73;56.79;95801.75;5065107;28;20181;-46
2023/09/29 10:39:29;;;;;;;1999.90;999.90;;;;;;;32.45;56.16;95802.19;5066224;28;20170;-45
2023/09/29 10:41:58;;;;;;;1999.90;999.90;;;;;;;33.00;55.03;95794.91;5066781;28;20241;-46
2023/09/29 10:44:27;;;;;;;1999.90;999.90;;;;;;;33.19;51.37;95802.00;5066034;28;20220;-48
2023/09/29 10:46:52;;;;;;;1999.90;999.90;;;;;;;32.78;52.23;95793.16;5066497;28;20170;-50
2023/09/29 10:49:18;;;;;;;1999.90;999.90;;;;;;;32.76;53.12;95787.28;5066198;28;20233;-51